CheckWX is a tool to help pilots better visualize weather data.  It is not intended as a substitute for an official pre-flight weather briefing.

21:09:15 UTC

KSKA METAR
Fairchild AFB Airport
Spokane, Washington, USA
Current

1 hour ago

KSKA 161958Z AUTO 26010KT 10SM CLR 27/07 A2993 RMK AO2 SLP123 T02740067 $
Observed
Jun-16 @ 19:58 UTC
Wind
  • 260° at 10 KTS
Visibility
10 SM
Flight Rules
VFR
Cloud Levels
  • Clear skies
Temperature
27°C / 81°F
Dewpoint
C / 45°F
Humidity
28%
Altimeter
29.93" Hg
Pressure
1013.52 hPa
Previous

2 hours ago

KSKA 161858Z AUTO 22005KT 10SM CLR 27/08 A2994 RMK AO2 SLP125 T02670077 $
Observed
Jun-16 @ 18:58 UTC
Wind
  • 220° at 5 KTS
Visibility
10 SM
Flight Rules
VFR
Cloud Levels
  • Clear skies
Temperature
27°C / 81°F
Dewpoint
C / 46°F
Humidity
30%
Altimeter
29.94" Hg
Pressure
1013.92 hPa
Previous

3 hours ago

KSKA 161758Z AUTO 25008KT 10SM CLR 26/08 A2995 RMK AO2 SLP128 T02590084 10259 20152 50002 $
Observed
Jun-16 @ 17:58 UTC
Wind
  • 250° at 8 KTS
Visibility
10 SM
Flight Rules
VFR
Cloud Levels
  • Clear skies
Temperature
26°C / 79°F
Dewpoint
C / 46°F
Humidity
32%
Altimeter
29.95" Hg
Pressure
1014.22 hPa